createdAt,value
2024-04-10T00:00:17.825Z,30.09
2024-04-10T00:01:17.900Z,30.09
2024-04-10T00:02:17.855Z,30.09
2024-04-10T00:03:19.886Z,30.08
2024-04-10T00:04:18.037Z,30.08
2024-04-10T00:05:18.219Z,30.05
2024-04-10T00:06:17.877Z,30.09
2024-04-10T00:07:17.833Z,30.10
2024-04-10T00:08:17.930Z,30.08
2024-04-10T00:09:17.833Z,30.09
2024-04-10T00:10:17.884Z,30.08
2024-04-10T00:11:17.953Z,30.12
2024-04-10T00:12:17.902Z,30.10
2024-04-10T00:13:17.844Z,30.09
2024-04-10T00:14:17.957Z,30.12
2024-04-10T00:15:17.854Z,30.06
2024-04-10T00:16:17.864Z,30.06
2024-04-10T00:17:18.035Z,30.08
2024-04-10T00:18:17.957Z,30.10
2024-04-10T00:19:17.943Z,30.13
2024-04-10T00:20:18.034Z,30.10
2024-04-10T00:21:17.880Z,30.10
2024-04-10T00:22:17.855Z,30.06
2024-04-10T00:23:17.934Z,30.10
2024-04-10T00:24:17.874Z,30.10
2024-04-10T00:25:17.857Z,30.06
2024-04-10T00:26:17.948Z,30.13
2024-04-10T00:27:17.969Z,30.14
2024-04-10T00:28:17.968Z,30.06
2024-04-10T00:29:18.011Z,30.06
2024-04-10T00:30:18.060Z,30.09
2024-04-10T00:31:18.095Z,30.12
2024-04-10T00:32:18.275Z,30.10
2024-04-10T00:33:18.199Z,30.06
2024-04-10T00:34:18.218Z,30.08
2024-04-10T00:35:18.244Z,30.07
2024-04-10T00:36:18.276Z,30.07
2024-04-10T00:37:18.322Z,30.10
2024-04-10T00:38:18.427Z,30.10
2024-04-10T00:39:18.428Z,30.12
2024-04-10T00:40:18.449Z,30.10
2024-04-10T00:41:18.533Z,30.14
2024-04-10T00:42:18.545Z,30.09
2024-04-10T00:43:18.607Z,30.12
2024-04-10T00:44:18.725Z,30.08
2024-04-10T00:45:18.681Z,30.09
2024-04-10T00:46:18.729Z,30.09
2024-04-10T00:47:18.998Z,30.07
2024-04-10T00:48:18.991Z,30.05
2024-04-10T00:49:18.912Z,30.06
2024-04-10T00:50:18.994Z,30.05
2024-04-10T00:51:18.967Z,30.12
2024-04-10T00:52:19.096Z,30.10
2024-04-10T00:53:19.115Z,30.10
2024-04-10T00:54:19.100Z,30.07
2024-04-10T00:55:19.228Z,30.04
2024-04-10T00:56:22.177Z,30.11
2024-04-10T00:57:19.209Z,30.11
2024-04-10T00:58:19.210Z,30.07
2024-04-10T00:59:19.372Z,30.09
2024-04-10T01:00:19.219Z,30.06
2024-04-10T01:01:19.308Z,30.10
2024-04-10T01:02:19.279Z,30.10
2024-04-10T01:03:19.377Z,30.06
2024-04-10T01:04:19.395Z,30.10
2024-04-10T01:05:19.262Z,30.08
2024-04-10T01:06:19.239Z,30.11
2024-04-10T01:07:19.230Z,30.06
2024-04-10T01:08:19.285Z,30.10
2024-04-10T01:09:19.239Z,30.11
2024-04-10T01:10:19.228Z,30.09
2024-04-10T01:11:19.441Z,30.07
2024-04-10T01:12:19.363Z,30.11
2024-04-10T01:13:19.255Z,30.13
2024-04-10T01:14:19.286Z,30.09
2024-04-10T01:15:19.257Z,30.07
2024-04-10T01:16:19.287Z,30.02
2024-04-10T01:17:19.352Z,30.08
2024-04-10T01:18:19.328Z,30.09
2024-04-10T01:19:19.256Z,30.07
2024-04-10T01:20:19.296Z,30.09
2024-04-10T01:21:19.271Z,30.11
2024-04-10T01:22:19.241Z,30.04
2024-04-10T01:23:19.322Z,30.05
2024-04-10T01:24:19.263Z,30.09
2024-04-10T01:25:19.249Z,30.08
2024-04-10T01:26:19.369Z,30.05
2024-04-10T01:27:19.412Z,30.09
2024-04-10T01:28:19.446Z,30.09
2024-04-10T01:29:19.561Z,30.04
2024-04-10T01:30:19.541Z,30.08
2024-04-10T01:31:19.605Z,30.07
2024-04-10T01:32:19.760Z,30.08
2024-04-10T01:33:19.799Z,30.08
2024-04-10T01:34:19.875Z,30.11
2024-04-10T01:35:19.924Z,30.14
2024-04-10T01:36:19.890Z,30.11
2024-04-10T01:37:19.940Z,30.07
2024-04-10T01:38:20.058Z,30.04
2024-04-10T01:39:20.028Z,30.11
2024-04-10T01:40:20.081Z,30.07
2024-04-10T01:41:20.204Z,30.09
2024-04-10T01:42:20.267Z,30.07
2024-04-10T01:43:20.248Z,30.09
2024-04-10T01:44:20.397Z,30.07
2024-04-10T01:45:20.350Z,30.07
2024-04-10T01:46:20.409Z,30.08
2024-04-10T01:47:20.562Z,30.08
2024-04-10T01:48:20.688Z,30.05
2024-04-10T01:49:20.644Z,30.09
2024-04-10T01:50:20.693Z,30.09
2024-04-10T01:51:20.689Z,30.09
2024-04-10T01:52:20.745Z,30.07
2024-04-10T01:53:20.906Z,30.06
2024-04-10T01:54:20.849Z,30.08
2024-04-10T01:55:20.919Z,30.06
2024-04-10T01:56:21.019Z,30.07
2024-04-10T01:57:21.014Z,30.08
2024-04-10T01:58:21.108Z,30.09
2024-04-10T01:59:21.186Z,30.08
2024-04-10T02:00:21.186Z,30.09
2024-04-10T02:01:21.243Z,30.04
2024-04-10T02:02:21.374Z,30.05
2024-04-10T02:03:21.481Z,30.09
2024-04-10T02:04:21.448Z,30.05
2024-04-10T02:05:21.792Z,30.06
2024-04-10T02:06:21.534Z,30.07
2024-04-10T02:07:21.572Z,30.04
2024-04-10T02:08:21.661Z,30.05
2024-04-10T02:09:21.686Z,30.05
2024-04-10T02:10:21.741Z,30.05
2024-04-10T02:11:21.886Z,30.09
2024-04-10T02:12:21.856Z,30.12
2024-04-10T02:13:21.915Z,30.05
2024-04-10T02:14:21.999Z,30.06
2024-04-10T02:15:22.025Z,30.06
2024-04-10T02:16:22.109Z,30.06
2024-04-10T02:17:22.258Z,30.08
2024-04-10T02:18:22.328Z,30.08
2024-04-10T02:19:22.292Z,30.06
2024-04-10T02:20:22.379Z,30.04
2024-04-10T02:21:22.408Z,30.09
2024-04-10T02:22:22.475Z,30.08
2024-04-10T02:23:23.099Z,30.12
2024-04-10T02:24:22.586Z,30.10
2024-04-10T02:25:22.654Z,30.06
2024-04-10T02:26:22.805Z,30.09
2024-04-10T02:27:22.781Z,30.05
2024-04-10T02:28:22.833Z,30.10
2024-04-10T02:29:22.931Z,30.09
2024-04-10T02:30:22.954Z,30.02
2024-04-10T02:31:23.019Z,30.08
2024-04-10T02:32:23.271Z,30.06
2024-04-10T02:33:23.210Z,30.08
2024-04-10T02:34:23.263Z,30.10
2024-04-10T02:35:23.317Z,30.08
2024-04-10T02:36:23.342Z,30.05
2024-04-10T02:37:23.404Z,30.08
2024-04-10T02:38:23.594Z,30.09
2024-04-10T02:39:23.566Z,30.06
2024-04-10T02:40:23.654Z,30.08
2024-04-10T02:41:23.718Z,30.10
2024-04-10T02:42:23.744Z,30.08
2024-04-10T02:43:23.818Z,30.08
2024-04-10T02:44:23.914Z,30.07
2024-04-10T02:45:23.949Z,30.06
2024-04-10T02:46:24.102Z,30.08
2024-04-10T02:47:24.115Z,30.09
2024-04-10T02:48:24.183Z,30.06
2024-04-10T02:49:24.195Z,30.06
2024-04-10T02:50:24.362Z,30.10
2024-04-10T02:51:24.327Z,30.10
2024-04-10T02:52:24.379Z,30.06
2024-04-10T02:53:24.646Z,30.02
2024-04-10T02:54:24.513Z,30.09
2024-04-10T02:55:24.584Z,29.99
2024-04-10T02:56:24.782Z,30.02
2024-04-10T02:57:24.714Z,30.05
2024-04-10T02:58:24.811Z,30.03
2024-04-10T02:59:24.943Z,30.06
2024-04-10T03:00:24.912Z,30.07
2024-04-10T03:01:24.973Z,30.04
2024-04-10T03:02:25.115Z,30.00
2024-04-10T03:03:25.239Z,30.06
2024-04-10T03:04:25.219Z,30.09
2024-04-10T03:05:25.286Z,30.02
2024-04-10T03:06:25.298Z,30.02
2024-04-10T03:07:25.372Z,30.02
2024-04-10T03:08:25.446Z,30.08
2024-04-10T03:09:25.494Z,30.03
2024-04-10T03:10:25.557Z,30.03
2024-04-10T03:11:25.716Z,30.03
2024-04-10T03:12:25.778Z,30.02
2024-04-10T03:13:25.767Z,30.03
2024-04-10T03:14:25.868Z,30.07
2024-04-10T03:15:25.892Z,30.04
2024-04-10T03:16:25.996Z,30.03
2024-04-10T03:17:26.177Z,30.06
2024-04-10T03:18:26.211Z,30.00
2024-04-10T03:19:26.158Z,30.06
2024-04-10T03:20:26.307Z,30.10
2024-04-10T03:21:26.294Z,30.09
2024-04-10T03:22:26.364Z,30.08
2024-04-10T03:23:26.513Z,30.03
2024-04-10T03:24:26.504Z,30.06
2024-04-10T03:25:26.576Z,29.99
2024-04-10T03:26:26.773Z,30.04
2024-04-10T03:27:26.703Z,30.03
2024-04-10T03:28:26.768Z,30.07
2024-04-10T03:29:26.956Z,30.04
2024-04-10T03:30:26.905Z,30.06
2024-04-10T03:31:26.971Z,30.04
2024-04-10T03:32:27.111Z,30.08
2024-04-10T03:33:27.274Z,30.08
2024-04-10T03:34:27.257Z,30.07
2024-04-10T03:35:27.361Z,30.08
2024-04-10T03:36:27.314Z,30.05
2024-04-10T03:37:27.382Z,30.04
2024-04-10T03:38:27.588Z,30.10
2024-04-10T03:39:27.532Z,30.03
2024-04-10T03:40:27.584Z,30.04
2024-04-10T03:41:27.736Z,30.04
2024-04-10T03:42:27.726Z,30.07
2024-04-10T03:43:27.796Z,30.04
2024-04-10T03:44:28.015Z,30.05
2024-04-10T03:45:27.929Z,30.04
2024-04-10T03:46:28.013Z,30.07
2024-04-10T03:47:28.259Z,30.03
2024-04-10T03:48:28.253Z,30.03
2024-04-10T03:49:28.206Z,30.09
2024-04-10T03:50:28.302Z,30.10
2024-04-10T03:51:28.334Z,30.04
2024-04-10T03:52:28.411Z,30.05
2024-04-10T03:53:28.619Z,30.05
2024-04-10T03:54:28.540Z,30.07
2024-04-10T03:55:28.640Z,30.07
2024-04-10T03:56:28.791Z,30.03
2024-04-10T03:57:28.740Z,30.07
2024-04-10T03:58:28.806Z,30.07
2024-04-10T03:59:28.912Z,30.07
2024-04-10T04:00:28.937Z,30.10
2024-04-10T04:01:29.016Z,30.07
2024-04-10T04:02:29.128Z,30.05
2024-04-10T04:03:29.271Z,30.05
2024-04-10T04:04:29.323Z,30.08
2024-04-10T04:05:29.363Z,30.07
2024-04-10T04:06:29.336Z,30.04
2024-04-10T04:07:29.391Z,30.05
2024-04-10T04:08:29.669Z,30.05
2024-04-10T04:09:29.534Z,30.03
2024-04-10T04:10:29.596Z,30.05
2024-04-10T04:11:29.778Z,30.05
2024-04-10T04:12:29.925Z,30.05
2024-04-10T04:13:29.781Z,30.05
2024-04-10T04:14:29.944Z,30.01
2024-04-10T04:15:29.911Z,30.07
2024-04-10T04:16:30.024Z,30.01
2024-04-10T04:17:30.104Z,30.07
2024-04-10T04:18:30.165Z,30.03
2024-04-10T04:19:30.164Z,30.02
2024-04-10T04:20:30.377Z,30.08
2024-04-10T04:21:30.316Z,30.09
2024-04-10T04:22:30.439Z,30.05
2024-04-10T04:23:30.499Z,30.04
2024-04-10T04:24:30.516Z,30.08
2024-04-10T04:25:31.588Z,30.04
2024-04-10T04:26:30.693Z,30.01
2024-04-10T04:27:30.712Z,30.07
2024-04-10T04:28:30.772Z,30.05
2024-04-10T04:29:30.885Z,30.05
2024-04-10T04:30:32.977Z,30.04
2024-04-10T04:31:31.920Z,30.08
2024-04-10T04:32:31.107Z,30.08
2024-04-10T04:33:31.118Z,30.02
2024-04-10T04:34:30.930Z,30.07
2024-04-10T04:35:38.179Z,30.09
2024-04-10T04:36:39.224Z,30.10
2024-04-10T04:37:39.131Z,30.04
2024-04-10T04:38:39.216Z,30.05
2024-04-10T04:39:39.144Z,30.06
2024-04-10T04:40:39.158Z,30.04
2024-04-10T04:41:39.272Z,30.05
2024-04-10T04:42:39.143Z,30.05
2024-04-10T04:43:39.130Z,30.00
2024-04-10T04:44:39.160Z,30.08
2024-04-10T04:45:39.148Z,30.05
2024-04-10T04:46:39.178Z,30.09
2024-04-10T04:47:39.248Z,30.06
2024-04-10T04:48:39.171Z,30.04
2024-04-10T04:49:39.125Z,30.02
2024-04-10T04:50:39.233Z,30.08
2024-04-10T04:51:39.256Z,30.09
2024-04-10T04:52:39.372Z,30.02
2024-04-10T04:53:39.495Z,30.02
2024-04-10T04:54:39.435Z,30.08
2024-04-10T04:55:39.498Z,30.08
2024-04-10T04:56:39.618Z,30.04
2024-04-10T04:57:39.621Z,30.08
2024-04-10T04:58:39.708Z,30.04
2024-04-10T04:59:39.805Z,30.06
2024-04-10T05:00:39.828Z,30.01
2024-04-10T05:01:39.887Z,30.01
2024-04-10T05:02:40.034Z,30.09
2024-04-10T05:03:40.138Z,30.06
2024-04-10T05:04:40.092Z,30.06
2024-04-10T05:05:40.151Z,30.04
2024-04-10T05:06:40.200Z,30.03
2024-04-10T05:07:40.258Z,30.06
2024-04-10T05:08:40.370Z,30.06
2024-04-10T05:09:40.461Z,30.04
2024-04-10T05:10:40.455Z,30.04
2024-04-10T05:11:40.748Z,30.03
2024-04-10T05:12:40.676Z,30.05
2024-04-10T05:13:40.824Z,30.06
2024-04-10T05:14:40.862Z,30.06
2024-04-10T05:15:40.820Z,30.02
2024-04-10T05:16:40.936Z,30.08
2024-04-10T05:17:41.068Z,30.06
2024-04-10T05:18:41.027Z,30.01
2024-04-10T05:19:41.040Z,30.01
2024-04-10T05:20:41.274Z,30.01
2024-04-10T05:21:41.256Z,30.08
2024-04-10T05:22:41.269Z,30.00
2024-04-10T05:23:41.398Z,30.03
2024-04-10T05:24:41.406Z,30.07
2024-04-10T05:25:41.475Z,30.03
2024-04-10T05:26:41.580Z,30.07
2024-04-10T05:27:41.590Z,30.04
2024-04-10T05:28:42.652Z,30.09
2024-04-10T05:29:41.840Z,30.03
2024-04-10T05:30:41.812Z,30.02
2024-04-10T05:31:41.896Z,30.03
2024-04-10T05:32:42.521Z,30.04
2024-04-10T05:33:42.028Z,30.02
2024-04-10T05:34:42.365Z,30.02
2024-04-10T05:35:42.175Z,30.06
2024-04-10T05:36:42.306Z,30.01
2024-04-10T05:37:42.278Z,30.01
2024-04-10T05:38:43.354Z,30.02
2024-04-10T05:39:42.800Z,30.01
2024-04-10T05:40:42.462Z,30.02
2024-04-10T05:41:42.687Z,30.03
2024-04-10T05:42:42.639Z,30.02
2024-04-10T05:43:42.658Z,30.04
2024-04-10T05:44:42.835Z,30.05
2024-04-10T05:45:42.832Z,30.24
2024-04-10T05:46:42.964Z,30.40
2024-04-10T05:47:43.338Z,30.73
2024-04-10T05:48:43.331Z,30.76
2024-04-10T05:49:43.067Z,30.78
2024-04-10T05:50:43.178Z,30.66
2024-04-10T05:51:43.210Z,31.18
2024-04-10T05:52:43.291Z,31.41
2024-04-10T05:53:43.491Z,31.66
2024-04-10T05:54:43.801Z,31.61
2024-04-10T05:55:43.492Z,31.84
2024-04-10T05:56:43.810Z,31.79
2024-04-10T05:57:43.528Z,31.90
2024-04-10T05:58:43.569Z,31.97
2024-04-10T05:59:44.718Z,32.02
2024-04-10T06:00:43.680Z,32.35
2024-04-10T06:01:43.768Z,32.60
2024-04-10T06:02:47.092Z,32.97
2024-04-10T06:03:43.986Z,32.97
2024-04-10T06:04:43.818Z,33.32
2024-04-10T06:05:43.797Z,33.28
2024-04-10T06:06:43.787Z,33.60
2024-04-10T06:07:43.915Z,33.76
2024-04-10T06:08:43.836Z,33.80
2024-04-10T06:09:43.746Z,33.94
2024-04-10T06:10:43.897Z,34.17
2024-04-10T06:11:43.917Z,34.13
2024-04-10T06:12:43.803Z,34.28
2024-04-10T06:13:43.771Z,34.38
2024-04-10T06:14:43.797Z,34.50
2024-04-10T06:15:43.865Z,34.54
2024-04-10T06:16:43.802Z,34.54
2024-04-10T06:17:43.828Z,34.59
2024-04-10T06:18:43.767Z,34.72
2024-04-10T06:19:43.763Z,34.94
2024-04-10T06:20:43.792Z,35.03
2024-04-10T06:21:43.764Z,34.99
2024-04-10T06:22:43.772Z,35.06
2024-04-10T06:23:43.816Z,35.10
2024-04-10T06:24:43.765Z,35.17
2024-04-10T06:25:43.790Z,35.26
2024-04-10T06:26:43.809Z,35.39
2024-04-10T06:27:44.767Z,35.40
2024-04-10T06:28:43.762Z,35.47
2024-04-10T06:29:43.772Z,35.61
2024-04-10T06:30:46.994Z,35.56
2024-04-10T06:31:43.802Z,35.63
2024-04-10T06:32:43.852Z,35.67
2024-04-10T06:33:43.881Z,35.76
2024-04-10T06:34:43.840Z,35.82
2024-04-10T06:35:43.825Z,35.84
2024-04-10T06:36:43.779Z,35.93
2024-04-10T06:37:44.790Z,35.89
2024-04-10T06:38:44.816Z,36.00
2024-04-10T06:39:43.824Z,36.02
2024-04-10T06:40:43.785Z,35.97
2024-04-10T06:41:43.798Z,36.09
2024-04-10T06:42:43.781Z,36.09
2024-04-10T06:43:43.789Z,36.13
2024-04-10T06:44:43.854Z,36.15
2024-04-10T06:45:43.792Z,36.18
2024-04-10T06:46:44.186Z,36.21
2024-04-10T06:47:44.035Z,36.19
2024-04-10T06:48:44.188Z,36.31
2024-04-10T06:49:44.113Z,36.36
2024-04-10T06:50:44.136Z,36.37
2024-04-10T06:51:44.293Z,36.46
2024-04-10T06:52:44.081Z,36.41
2024-04-10T06:53:44.192Z,36.49
2024-04-10T06:54:44.145Z,36.54
2024-04-10T06:55:44.215Z,36.54
2024-04-10T06:56:45.262Z,36.61
2024-04-10T06:57:47.481Z,36.69
2024-04-10T06:58:44.257Z,36.73
2024-04-10T06:59:44.335Z,36.74
2024-04-10T07:00:44.610Z,36.73
2024-04-10T07:01:44.748Z,36.77
2024-04-10T07:02:44.446Z,36.88
2024-04-10T07:03:47.608Z,36.98
2024-04-10T07:04:44.314Z,36.96
2024-04-10T07:05:44.445Z,36.97
2024-04-10T07:06:44.291Z,37.02
2024-04-10T07:07:44.281Z,37.02
2024-04-10T07:08:45.752Z,37.07
2024-04-10T07:09:44.271Z,37.02
2024-04-10T07:10:44.330Z,37.07
2024-04-10T07:11:47.575Z,37.08
2024-04-10T07:12:45.307Z,37.12
2024-04-10T07:13:44.344Z,37.21
2024-04-10T07:14:44.317Z,37.22
2024-04-10T07:15:44.351Z,37.17
2024-04-10T07:16:44.311Z,37.20
2024-04-10T07:17:44.538Z,37.27
2024-04-10T07:18:44.283Z,37.27
2024-04-10T07:19:44.300Z,36.97
2024-04-10T07:20:44.388Z,35.80
2024-04-10T07:21:44.296Z,34.96
2024-04-10T07:22:44.339Z,34.46
2024-04-10T07:23:44.311Z,34.35
2024-04-10T07:24:44.289Z,34.42
2024-04-10T07:25:47.562Z,34.84
2024-04-10T07:26:44.398Z,36.15
2024-04-10T07:27:44.301Z,36.17
2024-04-10T07:28:47.841Z,36.17
2024-04-10T07:29:44.318Z,36.43
2024-04-10T07:30:44.309Z,36.23
2024-04-10T07:31:44.308Z,35.87
2024-04-10T07:32:44.411Z,36.10
2024-04-10T07:33:45.070Z,35.74
2024-04-10T07:34:44.319Z,35.20
2024-04-10T07:35:44.428Z,33.94
2024-04-10T07:36:46.281Z,32.79
2024-04-10T07:37:44.811Z,32.46
2024-04-10T07:38:44.333Z,32.04
2024-04-10T07:39:44.992Z,31.69
2024-04-10T07:40:44.341Z,31.54
2024-04-10T07:41:44.396Z,31.29
2024-04-10T07:42:44.853Z,30.77
2024-04-10T07:43:44.320Z,31.32
2024-04-10T07:44:47.662Z,30.98
2024-04-10T07:45:44.318Z,30.80
2024-04-10T07:46:45.356Z,30.31
2024-04-10T07:47:44.971Z,30.52
2024-04-10T07:48:47.149Z,29.96
2024-04-10T07:49:44.336Z,29.75
2024-04-10T07:50:44.361Z,28.95
2024-04-10T07:51:44.321Z,29.19
2024-04-10T07:52:44.886Z,30.32
2024-04-10T07:53:44.337Z,30.05
2024-04-10T07:54:47.586Z,30.28
2024-04-10T07:55:47.555Z,30.08
2024-04-10T07:56:44.915Z,30.10
2024-04-10T07:57:44.343Z,30.15
2024-04-10T07:58:44.888Z,30.04
2024-04-10T07:59:44.373Z,29.97
2024-04-10T08:00:45.392Z,29.89
2024-04-10T08:01:47.554Z,29.91
2024-04-10T08:02:45.574Z,29.85
2024-04-10T08:03:44.401Z,29.80
2024-04-10T08:04:44.487Z,29.77
2024-04-10T08:05:44.367Z,29.72
2024-04-10T08:06:44.371Z,29.61
2024-04-10T08:07:44.432Z,29.54
2024-04-10T08:08:44.626Z,29.48
2024-04-10T08:09:44.514Z,29.43
2024-04-10T08:10:44.591Z,29.47
2024-04-10T08:11:44.735Z,29.26
2024-04-10T08:12:44.629Z,29.19
2024-04-10T08:13:44.684Z,29.14
2024-04-10T08:14:44.749Z,29.04
2024-04-10T08:15:44.769Z,28.98
2024-04-10T08:16:44.838Z,28.96
2024-04-10T08:17:44.848Z,28.94
2024-04-10T08:18:45.341Z,28.84
2024-04-10T08:19:44.873Z,28.82
2024-04-10T08:20:44.956Z,28.76
2024-04-10T08:21:44.982Z,28.79
2024-04-10T08:22:44.992Z,28.74
2024-04-10T08:23:45.805Z,28.74
2024-04-10T08:24:45.074Z,28.69
2024-04-10T08:25:45.143Z,28.67
2024-04-10T08:26:45.234Z,28.71
2024-04-10T08:27:45.204Z,28.63
2024-04-10T08:28:45.238Z,28.61
2024-04-10T08:29:45.442Z,28.63
2024-04-10T08:30:45.330Z,28.54
2024-04-10T08:31:45.358Z,28.54
2024-04-10T08:32:45.597Z,28.49
2024-04-10T08:33:46.192Z,28.49
2024-04-10T08:34:45.645Z,28.49
2024-04-10T08:35:45.536Z,28.51
2024-04-10T08:36:45.613Z,28.43
2024-04-10T08:37:45.643Z,28.48
2024-04-10T08:38:45.687Z,28.54
2024-04-10T08:39:45.754Z,28.50
2024-04-10T08:40:45.873Z,28.47
2024-04-10T08:41:45.839Z,28.43
2024-04-10T08:42:45.927Z,28.40
2024-04-10T08:43:45.993Z,28.37
2024-04-10T08:44:46.003Z,28.36
2024-04-10T08:45:46.062Z,28.38
2024-04-10T08:46:46.159Z,28.33
2024-04-10T08:47:49.637Z,28.34
2024-04-10T08:48:46.407Z,28.38
2024-04-10T08:49:46.179Z,28.37
2024-04-10T08:50:46.202Z,28.43
2024-04-10T08:51:46.284Z,28.39
2024-04-10T08:52:46.171Z,28.42
2024-04-10T08:53:46.218Z,28.42
2024-04-10T08:54:46.704Z,28.37
2024-04-10T08:55:54.571Z,28.40
2024-04-10T08:56:46.859Z,28.32
2024-04-10T08:57:46.483Z,28.33
2024-04-10T08:58:47.470Z,28.35
2024-04-10T08:59:46.440Z,28.37
2024-04-10T09:00:47.114Z,28.33
2024-04-10T09:01:48.792Z,28.35
2024-04-10T09:02:46.494Z,28.32
2024-04-10T09:03:46.483Z,28.33
2024-04-10T09:04:46.608Z,28.28
2024-04-10T09:05:46.452Z,28.23
2024-04-10T09:06:53.953Z,28.26
2024-04-10T09:07:53.881Z,28.29
2024-04-10T09:08:46.465Z,28.29
2024-04-10T09:09:46.508Z,28.33
2024-04-10T09:10:46.459Z,28.31
2024-04-10T09:11:47.086Z,28.31
2024-04-10T09:12:46.466Z,28.35
2024-04-10T09:13:46.735Z,28.35
2024-04-10T09:14:46.626Z,28.41
2024-04-10T09:15:46.463Z,28.33
2024-04-10T09:16:46.523Z,28.33
2024-04-10T09:17:46.676Z,28.33
2024-04-10T09:18:46.502Z,28.34
2024-04-10T09:19:48.366Z,28.34
2024-04-10T09:20:46.482Z,28.31
2024-04-10T09:21:46.482Z,28.27
2024-04-10T09:22:47.477Z,28.31
2024-04-10T09:23:46.583Z,28.29
2024-04-10T09:24:46.499Z,28.29
2024-04-10T09:25:47.848Z,28.34
2024-04-10T09:26:46.541Z,28.29
2024-04-10T09:27:46.496Z,28.33
2024-04-10T09:28:46.496Z,28.35
2024-04-10T09:29:46.903Z,28.36
2024-04-10T09:30:47.264Z,28.32
2024-04-10T09:31:46.825Z,28.37
2024-04-10T09:32:46.768Z,28.39
2024-04-10T09:33:46.862Z,28.37
2024-04-10T09:34:46.956Z,28.80
2024-04-10T09:35:46.807Z,29.32
2024-04-10T09:36:46.880Z,29.55
2024-04-10T09:37:47.867Z,29.75
2024-04-10T09:38:46.978Z,29.86
2024-04-10T09:39:47.025Z,29.98
2024-04-10T09:40:50.267Z,30.15
2024-04-10T09:41:47.168Z,30.43
2024-04-10T09:42:47.175Z,30.57
2024-04-10T09:43:48.015Z,30.69
2024-04-10T09:44:47.072Z,30.71
2024-04-10T09:45:47.018Z,30.88
2024-04-10T09:46:47.114Z,30.99
2024-04-10T09:47:47.349Z,31.08
2024-04-10T09:48:48.329Z,31.10
2024-04-10T09:49:47.028Z,31.13
2024-04-10T09:50:47.266Z,31.23
2024-04-10T09:51:47.070Z,31.35
2024-04-10T09:52:47.114Z,31.42
2024-04-10T09:53:47.080Z,31.56
2024-04-10T09:54:47.050Z,31.59
2024-04-10T09:55:47.395Z,31.68
2024-04-10T09:56:47.162Z,31.86
2024-04-10T09:57:47.049Z,31.86
2024-04-10T09:58:47.070Z,32.08
2024-04-10T09:59:49.317Z,32.28
2024-04-10T10:00:47.119Z,32.22
2024-04-10T10:01:47.390Z,32.36
2024-04-10T10:02:47.119Z,32.38
2024-04-10T10:03:47.360Z,32.48
2024-04-10T10:04:47.115Z,32.52
2024-04-10T10:05:48.325Z,32.56
2024-04-10T10:06:47.077Z,32.77
2024-04-10T10:07:47.065Z,32.86
2024-04-10T10:08:47.104Z,32.87
2024-04-10T10:09:47.090Z,32.92
2024-04-10T10:10:47.136Z,32.88
2024-04-10T10:11:47.143Z,31.06
2024-04-10T10:12:47.080Z,30.13
2024-04-10T10:13:47.121Z,29.84
2024-04-10T10:14:47.177Z,29.62
2024-04-10T10:15:47.142Z,29.87
2024-04-10T10:16:47.142Z,30.15
2024-04-10T10:17:53.997Z,30.70
2024-04-10T10:18:47.301Z,30.82
2024-04-10T10:19:47.600Z,31.22
2024-04-10T10:20:47.758Z,31.58
2024-04-10T10:21:47.489Z,32.01
2024-04-10T10:22:47.103Z,32.22
2024-04-10T10:23:47.188Z,32.28
2024-04-10T10:24:47.110Z,32.33
2024-04-10T10:25:47.113Z,32.49
2024-04-10T10:26:47.164Z,32.81
2024-04-10T10:27:47.193Z,32.76
2024-04-10T10:28:47.171Z,32.78
2024-04-10T10:29:47.923Z,33.01
2024-04-10T10:30:47.269Z,33.14
2024-04-10T10:31:47.476Z,33.02
2024-04-10T10:32:47.259Z,32.98
2024-04-10T10:33:47.295Z,33.03
2024-04-10T10:34:47.411Z,33.08
2024-04-10T10:35:47.182Z,33.16
2024-04-10T10:36:47.640Z,33.15
2024-04-10T10:37:47.167Z,33.21
2024-04-10T10:38:47.185Z,33.25
2024-04-10T10:39:47.156Z,33.33
2024-04-10T10:40:47.139Z,33.32
2024-04-10T10:41:47.388Z,33.43
2024-04-10T10:42:47.578Z,33.40
2024-04-10T10:43:47.629Z,33.48
2024-04-10T10:44:47.903Z,33.57
2024-04-10T10:45:47.959Z,33.57
2024-04-10T10:46:48.098Z,33.59
2024-04-10T10:47:47.959Z,33.61
2024-04-10T10:48:48.223Z,33.63
2024-04-10T10:49:48.288Z,33.65
2024-04-10T10:50:48.314Z,33.67
2024-04-10T10:51:48.192Z,33.76
2024-04-10T10:52:48.351Z,33.82
2024-04-10T10:53:48.502Z,33.89
2024-04-10T10:54:48.324Z,33.90
2024-04-10T10:55:48.082Z,33.98
2024-04-10T10:56:48.697Z,33.94
2024-04-10T10:57:48.341Z,33.96
2024-04-10T10:58:48.576Z,34.05
2024-04-10T10:59:48.446Z,34.02
2024-04-10T11:00:48.484Z,34.01
2024-04-10T11:01:48.586Z,34.05
2024-04-10T11:02:48.539Z,34.08
2024-04-10T11:03:48.221Z,33.13
2024-04-10T11:04:48.199Z,32.26
2024-04-10T11:05:48.311Z,32.04
2024-04-10T11:06:48.217Z,31.62
2024-04-10T11:07:48.202Z,31.36
2024-04-10T11:08:48.295Z,31.34
2024-04-10T11:09:48.292Z,31.08
2024-04-10T11:10:48.354Z,30.92
2024-04-10T11:11:48.457Z,30.58
2024-04-10T11:12:48.418Z,31.15
2024-04-10T11:13:49.352Z,31.17
2024-04-10T11:14:48.469Z,31.39
2024-04-10T11:15:48.521Z,31.50
2024-04-10T11:16:48.620Z,31.49
2024-04-10T11:17:49.172Z,31.50
2024-04-10T11:18:48.560Z,31.63
2024-04-10T11:19:52.693Z,31.60
2024-04-10T11:20:48.853Z,31.62
2024-04-10T11:21:48.858Z,31.69
2024-04-10T11:22:49.437Z,31.72
2024-04-10T11:23:49.061Z,31.73
2024-04-10T11:24:49.034Z,31.82
2024-04-10T11:25:49.072Z,31.85
2024-04-10T11:26:49.185Z,31.84
2024-04-10T11:27:49.152Z,31.81
2024-04-10T11:28:49.202Z,31.69
2024-04-10T11:29:49.442Z,31.61
2024-04-10T11:30:49.666Z,31.62
2024-04-10T11:31:49.327Z,31.62
2024-04-10T11:32:49.410Z,31.64
2024-04-10T11:33:49.574Z,31.60
2024-04-10T11:34:49.463Z,31.62
2024-04-10T11:35:51.347Z,31.59
2024-04-10T11:36:49.417Z,31.60
2024-04-10T11:37:49.408Z,31.48
2024-04-10T11:38:49.494Z,31.58
2024-04-10T11:39:49.413Z,31.55
2024-04-10T11:40:49.407Z,31.59
2024-04-10T11:41:49.493Z,31.58
2024-04-10T11:42:49.432Z,31.56
2024-04-10T11:43:49.445Z,31.56
2024-04-10T11:44:49.511Z,31.60
2024-04-10T11:45:49.432Z,31.56
2024-04-10T11:46:49.435Z,31.60
2024-04-10T11:47:49.608Z,31.56
2024-04-10T11:48:49.490Z,31.58
2024-04-10T11:49:49.454Z,31.59
2024-04-10T11:50:49.489Z,31.56
2024-04-10T11:51:49.953Z,31.59
2024-04-10T11:52:49.428Z,31.59
2024-04-10T11:53:49.595Z,31.54
2024-04-10T11:54:49.586Z,31.62
2024-04-10T11:55:49.440Z,31.63
2024-04-10T11:56:49.488Z,31.63
2024-04-10T11:57:49.452Z,31.65
2024-04-10T11:58:49.445Z,31.63
2024-04-10T11:59:49.494Z,31.58
2024-04-10T12:00:49.546Z,31.63
2024-04-10T12:01:49.467Z,31.63
2024-04-10T12:02:49.557Z,31.62
2024-04-10T12:03:49.596Z,31.66
2024-04-10T12:04:49.511Z,31.65
2024-04-10T12:05:49.495Z,31.66
2024-04-10T12:06:49.459Z,31.66
2024-04-10T12:07:49.462Z,31.76
2024-04-10T12:08:49.612Z,31.84
2024-04-10T12:09:49.470Z,31.85
2024-04-10T12:10:49.488Z,31.89
2024-04-10T12:11:49.567Z,31.88
2024-04-10T12:12:49.568Z,31.87
2024-04-10T12:13:49.468Z,31.83
2024-04-10T12:14:49.514Z,31.85
2024-04-10T12:15:49.470Z,31.82
2024-04-10T12:16:49.506Z,31.80
2024-04-10T12:17:49.508Z,31.81
2024-04-10T12:18:49.558Z,31.81
2024-04-10T12:19:49.479Z,31.77
2024-04-10T12:20:49.556Z,31.73
2024-04-10T12:21:49.495Z,31.78
2024-04-10T12:22:49.501Z,31.77
2024-04-10T12:23:49.554Z,31.81
2024-04-10T12:24:49.503Z,31.82
2024-04-10T12:25:49.509Z,31.79
2024-04-10T12:26:49.614Z,31.84
2024-04-10T12:27:49.507Z,31.75
2024-04-10T12:28:49.502Z,31.78
2024-04-10T12:29:49.551Z,31.78
2024-04-10T12:30:49.527Z,31.81
2024-04-10T12:31:49.517Z,31.79
2024-04-10T12:32:50.369Z,31.81
2024-04-10T12:33:50.398Z,31.77
2024-04-10T12:34:50.476Z,31.77
2024-04-10T12:35:49.575Z,31.79
2024-04-10T12:36:49.668Z,31.78
2024-04-10T12:37:49.582Z,31.71
2024-04-10T12:38:49.677Z,31.71
2024-04-10T12:39:49.601Z,31.70
2024-04-10T12:40:49.612Z,31.73
2024-04-10T12:41:49.695Z,31.74
2024-04-10T12:42:49.671Z,31.71
2024-04-10T12:43:49.680Z,31.70
2024-04-10T12:44:49.743Z,31.70
2024-04-10T12:45:49.739Z,31.74
2024-04-10T12:46:49.823Z,31.70
2024-04-10T12:47:49.853Z,31.70
2024-04-10T12:48:49.865Z,31.71
2024-04-10T12:49:49.832Z,31.71
2024-04-10T12:50:49.903Z,31.71
2024-04-10T12:51:49.881Z,31.75
2024-04-10T12:52:49.884Z,31.70